Time;durP1;ratioP1;P1;durP2;ratioP2;P2;SDS_P1;SDS_P2;PMS_P1;PMS_P2;Temp;Humidity;BMP_temperature;BMP_pressure;BME280_temperature;BME280_humidity;BME280_pressure;Samples;Min_cycle;Max_cycle;Signal;HPM_P1;HPM_P2
2022/09/17 00:01:44;;;;;;;1.27;1.27;;;;;;;13.34;90.12;94932.19;4386761;32;20193;-54
2022/09/17 00:04:10;;;;;;;1.50;1.43;;;;;;;13.34;90.75;94931.41;4377153;32;20197;-56
2022/09/17 00:06:36;;;;;;;1.07;0.97;;;;;;;13.19;91.35;94932.72;4395171;32;20223;-55
2022/09/17 00:09:06;;;;;;;1.00;0.97;;;;;;;13.41;92.90;94934.38;4384456;32;20199;-56
2022/09/17 00:11:37;;;;;;;1.57;1.47;;;;;;;13.50;92.70;94940.47;4345041;32;20225;-53
2022/09/17 00:14:08;;;;;;;1.33;1.30;;;;;;;13.41;91.08;94937.03;4388879;32;20212;-55
2022/09/17 00:16:36;;;;;;;0.60;0.60;;;;;;;13.46;90.95;94946.75;4362088;32;20192;-57
2022/09/17 00:19:05;;;;;;;1.03;1.03;;;;;;;13.35;89.58;94940.97;4398037;32;20180;-55
2022/09/17 00:21:31;;;;;;;0.77;0.77;;;;;;;13.33;91.94;94935.97;4389385;32;20331;-55
2022/09/17 00:24:00;;;;;;;1.73;1.30;;;;;;;13.31;90.96;94932.06;4371515;32;21371;-55
2022/09/17 00:26:28;;;;;;;1.00;1.00;;;;;;;13.57;93.95;94939.94;4384112;32;20168;-56
2022/09/17 00:28:58;;;;;;;0.63;0.63;;;;;;;13.44;91.17;94935.62;4374030;32;20304;-52
2022/09/17 00:31:26;;;;;;;0.77;0.77;;;;;;;13.44;89.81;94939.06;4400111;32;20235;-56
2022/09/17 00:33:53;;;;;;;0.83;0.83;;;;;;;13.21;87.95;94932.41;4368023;32;20189;-53
2022/09/17 00:36:20;;;;;;;0.60;0.60;;;;;;;13.33;90.60;94940.50;4370728;32;20259;-55
2022/09/17 00:39:14;;;;;;;0.53;0.53;;;;;;;13.12;88.34;94939.63;4388512;32;20192;-56
2022/09/17 00:41:40;;;;;;;0.20;0.20;;;;;;;13.16;90.26;94941.34;4397816;32;20188;-56
2022/09/17 00:44:43;;;;;;;1.40;0.50;;;;;;;13.22;89.38;94939.31;4387111;32;20230;-56
2022/09/17 00:47:32;;;;;;;0.83;0.83;;;;;;;13.30;88.71;94941.19;4388297;32;20195;-55
2022/09/17 00:50:06;;;;;;;0.50;0.50;;;;;;;13.39;89.96;94942.69;4381085;32;20256;-53
2022/09/17 00:52:53;;;;;;;0.40;0.40;;;;;;;13.28;88.65;94949.47;4394684;32;20183;-55
2022/09/17 00:55:35;;;;;;;0.40;0.40;;;;;;;13.12;86.68;94947.59;4379098;32;20197;-55
2022/09/17 00:58:05;;;;;;;0.40;0.40;;;;;;;13.18;88.43;94943.72;4387627;32;20192;-55
2022/09/17 01:00:33;;;;;;;0.20;0.20;;;;;;;13.06;85.93;94947.00;4404869;32;20212;-56
2022/09/17 01:02:59;;;;;;;0.10;0.10;;;;;;;13.27;89.41;94953.25;4390318;32;20199;-54
2022/09/17 01:05:32;;;;;;;0.53;0.53;;;;;;;13.19;85.06;94959.38;4355847;32;20196;-56
2022/09/17 01:08:18;;;;;;;0.40;0.40;;;;;;;13.16;89.05;94957.34;4402101;32;20280;-54
2022/09/17 01:11:06;;;;;;;3.60;0.90;;;;;;;13.13;88.20;94963.28;4405864;32;20340;-55
2022/09/17 01:14:13;;;;;;;0.57;0.57;;;;;;;13.36;89.83;94961.19;4371482;32;20255;-56
2022/09/17 01:17:13;;;;;;;0.50;0.50;;;;;;;13.13;86.08;94954.50;4386811;32;20255;-57
2022/09/17 01:20:16;;;;;;;0.60;0.60;;;;;;;13.04;87.51;94959.88;4360652;32;20184;-55
2022/09/17 01:23:02;;;;;;;0.40;0.40;;;;;;;12.85;86.34;94952.22;4388006;32;20312;-54
2022/09/17 01:26:23;;;;;;;3.97;0.67;;;;;;;13.09;88.37;94951.72;4386550;32;20282;-55
2022/09/17 01:28:54;;;;;;;0.17;0.17;;;;;;;13.26;89.52;94950.91;4358480;32;20184;-57
2022/09/17 01:31:48;;;;;;;0.47;0.47;;;;;;;13.46;88.70;94946.75;4395026;32;20185;-56
2022/09/17 01:34:39;;;;;;;0.33;0.30;;;;;;;13.17;88.84;94950.13;4387120;32;20223;-56
2022/09/17 01:37:14;;;;;;;0.33;0.33;;;;;;;13.25;89.50;94949.34;4403290;32;20172;-55
2022/09/17 01:39:51;;;;;;;0.53;0.53;;;;;;;13.27;88.59;94952.47;4393351;32;20285;-56
2022/09/17 01:42:42;;;;;;;0.50;0.50;;;;;;;13.16;86.09;94957.34;4399585;32;20179;-56
2022/09/17 01:45:29;;;;;;;2.97;0.63;;;;;;;13.38;89.36;94957.09;4391933;32;20185;-57
2022/09/17 01:48:24;;;;;;;0.83;0.73;;;;;;;13.27;87.32;94947.91;4387910;32;20180;-56
2022/09/17 01:51:11;;;;;;;0.30;0.30;;;;;;;13.27;85.48;94944.47;4377406;32;20197;-56
2022/09/17 01:54:05;;;;;;;0.63;0.40;;;;;;;13.19;86.62;94945.28;4382321;32;20219;-55
2022/09/17 01:56:39;;;;;;;0.73;0.73;;;;;;;13.05;88.47;94946.22;4392477;32;20267;-55
2022/09/17 01:59:26;;;;;;;0.50;0.50;;;;;;;13.08;88.16;94940.28;4388787;32;20199;-56
2022/09/17 02:01:59;;;;;;;0.33;0.33;;;;;;;13.19;88.51;94940.72;4396260;32;20191;-57
2022/09/17 02:04:37;;;;;;;0.50;0.50;;;;;;;13.18;89.43;94949.03;4348210;32;20203;-54
2022/09/17 02:07:10;;;;;;;0.40;0.40;;;;;;;13.33;90.73;94943.16;4378010;32;20192;-56
2022/09/17 02:09:45;;;;;;;5.53;0.70;;;;;;;12.95;85.35;94935.13;4403382;32;20259;-53
2022/09/17 02:12:23;;;;;;;0.87;0.87;;;;;;;12.98;87.80;94935.28;4409612;32;20180;-54
2022/09/17 02:14:52;;;;;;;0.20;0.20;;;;;;;13.07;87.34;94935.25;4387976;32;20215;-55
2022/09/17 02:17:46;;;;;;;1.10;0.80;;;;;;;12.91;87.75;94934.97;4397394;32;20187;-50
2022/09/17 02:20:13;;;;;;;0.47;0.47;;;;;;;12.86;84.54;94940.47;4389875;32;20214;-53
2022/09/17 02:23:06;;;;;;;0.20;0.20;;;;;;;13.02;88.22;94940.75;4394036;32;20204;-56
2022/09/17 02:25:43;;;;;;;0.37;0.37;;;;;;;12.88;84.29;94938.28;4357962;32;20192;-56
2022/09/17 02:28:40;;;;;;;0.23;0.20;;;;;;;12.77;86.47;94933.59;4370879;32;20199;-55
2022/09/17 02:31:06;;;;;;;0.20;0.20;;;;;;;12.99;87.57;94931.50;4399471;32;20202;-56
2022/09/17 02:33:34;;;;;;;0.23;0.23;;;;;;;12.61;83.81;94931.44;4394821;32;20235;-56
2022/09/17 02:36:01;;;;;;;0.97;0.67;;;;;;;12.76;85.42;94932.03;4369769;32;20196;-56
2022/09/17 02:38:30;;;;;;;0.20;0.20;;;;;;;12.57;85.98;94929.72;4377524;32;20283;-56
2022/09/17 02:41:20;;;;;;;0.20;0.20;;;;;;;12.60;83.49;94924.56;4389569;32;20192;-56
2022/09/17 02:44:08;;;;;;;0.37;0.37;;;;;;;12.68;86.03;94920.28;4388890;32;20181;-54
2022/09/17 02:46:56;;;;;;;1.33;0.57;;;;;;;12.57;84.08;94914.53;4387488;32;20206;-54
2022/09/17 02:49:53;;;;;;;2.40;0.30;;;;;;;12.85;89.29;94911.50;4378005;32;20188;-53
2022/09/17 02:52:47;;;;;;;0.23;0.23;;;;;;;12.84;89.18;94910.72;4354806;32;20185;-55
2022/09/17 02:55:30;;;;;;;0.30;0.30;;;;;;;12.51;83.49;94907.03;4388155;32;20219;-55
2022/09/17 02:58:12;;;;;;;0.10;0.10;;;;;;;12.85;89.88;94898.22;4379476;32;20191;-54
2022/09/17 03:00:39;;;;;;;0.53;0.47;;;;;;;12.80;88.28;94898.38;4387285;32;20243;-56
2022/09/17 03:03:19;;;;;;;0.33;0.27;;;;;;;12.57;87.40;94903.09;4394091;32;20219;-56
2022/09/17 03:05:47;;;;;;;0.00;0.00;;;;;;;12.65;86.31;94894.34;4397255;32;20195;-55
2022/09/17 03:08:19;;;;;;;0.30;0.30;;;;;;;12.30;81.55;94886.37;4389675;32;20208;-56
2022/09/17 03:10:48;;;;;;;0.10;0.10;;;;;;;12.48;84.56;94886.37;4381541;32;20258;-56
2022/09/17 03:13:17;;;;;;;1.70;0.93;;;;;;;12.50;84.43;94881.50;4386900;32;20208;-54
2022/09/17 03:15:44;;;;;;;0.20;0.20;;;;;;;12.73;88.16;94880.22;4376944;32;20216;-56
2022/09/17 03:18:10;;;;;;;0.10;0.10;;;;;;;12.57;82.79;94876.50;4382366;32;20184;-55
2022/09/17 03:20:37;;;;;;;0.20;0.20;;;;;;;12.55;86.10;94879.47;4382566;32;20263;-56
2022/09/17 03:23:02;;;;;;;0.30;0.30;;;;;;;12.47;88.51;94882.91;4391803;32;20188;-54
2022/09/17 03:25:29;;;;;;;0.30;0.30;;;;;;;12.56;88.00;94889.03;4398863;32;20279;-54
2022/09/17 03:27:56;;;;;;;0.20;0.20;;;;;;;12.33;84.86;94895.63;4394759;32;20241;-56
2022/09/17 03:30:23;;;;;;;1.00;0.50;;;;;;;12.50;87.59;94881.50;4394107;32;20192;-56
2022/09/17 03:32:50;;;;;;;0.30;0.30;;;;;;;12.70;87.15;94894.94;4387594;32;20195;-54
2022/09/17 03:35:16;;;;;;;0.17;0.17;;;;;;;12.68;86.61;94883.81;4397751;32;20192;-57
2022/09/17 03:37:42;;;;;;;0.10;0.10;;;;;;;12.57;84.03;94889.81;4405024;32;20191;-53
2022/09/17 03:40:09;;;;;;;0.40;0.40;;;;;;;12.37;83.50;94889.38;4399677;32;20212;-61
2022/09/17 03:42:36;;;;;;;6.87;0.63;;;;;;;12.53;86.48;94887.00;4395031;32;20215;-53
2022/09/17 03:45:02;;;;;;;0.40;0.40;;;;;;;12.67;87.23;94892.16;4392888;32;20245;-55
2022/09/17 03:47:29;;;;;;;1.20;0.97;;;;;;;12.67;87.66;94897.47;4396626;32;20282;-56
2022/09/17 03:49:54;;;;;;;6.50;0.63;;;;;;;12.62;86.89;94905.62;4369202;32;20227;-56
2022/09/17 03:52:20;;;;;;;0.20;0.20;;;;;;;12.53;85.80;94891.53;4373737;32;20290;-55
2022/09/17 03:54:47;;;;;;;0.20;0.20;;;;;;;12.58;86.56;94900.13;4384500;32;20196;-56
2022/09/17 03:57:14;;;;;;;0.20;0.20;;;;;;;12.49;84.93;94903.91;4380523;32;20200;-56
2022/09/17 03:59:41;;;;;;;0.20;0.20;;;;;;;12.73;89.30;94901.50;4359922;32;20193;-57
2022/09/17 04:02:12;;;;;;;0.37;0.37;;;;;;;12.58;83.86;94904.69;4348705;32;20237;-53
2022/09/17 04:04:38;;;;;;;0.40;0.40;;;;;;;12.86;87.63;94899.78;4367906;32;20234;-56
2022/09/17 04:07:06;;;;;;;0.20;0.20;;;;;;;12.80;86.26;94895.72;4398400;32;20196;-55
2022/09/17 04:09:33;;;;;;;0.43;0.43;;;;;;;12.77;88.27;94896.34;4367940;32;20193;-53
2022/09/17 04:11:59;;;;;;;3.30;0.93;;;;;;;12.68;86.96;94896.34;4376382;32;20264;-53
2022/09/17 04:14:25;;;;;;;0.20;0.20;;;;;;;12.61;88.20;94898.72;4371662;32;20235;-54
2022/09/17 04:16:52;;;;;;;0.50;0.50;;;;;;;12.59;85.34;94899.03;4381623;32;20271;-55
2022/09/17 04:19:18;;;;;;;0.10;0.10;;;;;;;12.58;89.42;94894.81;4368457;32;20190;-54
2022/09/17 04:21:43;;;;;;;0.30;0.30;;;;;;;12.70;87.24;94896.81;4405726;32;20223;-55
2022/09/17 04:24:08;;;;;;;0.40;0.40;;;;;;;12.58;88.98;94894.81;4390030;32;20196;-56
2022/09/17 04:26:35;;;;;;;0.17;0.17;;;;;;;12.59;88.40;94882.28;4399573;32;20278;-56
2022/09/17 04:29:00;;;;;;;0.17;0.17;;;;;;;12.51;84.77;94883.06;4371968;32;20195;-55
2022/09/17 04:31:27;;;;;;;0.53;0.53;;;;;;;12.58;88.01;94883.38;4390638;32;20192;-54
2022/09/17 04:33:52;;;;;;;0.20;0.20;;;;;;;12.41;88.30;94889.53;4373409;32;20202;-57
2022/09/17 04:36:18;;;;;;;0.50;0.50;;;;;;;12.31;88.00;94898.59;4388578;32;20192;-53
2022/09/17 04:38:46;;;;;;;0.70;0.43;;;;;;;12.30;89.19;94901.56;4378342;32;20219;-55
2022/09/17 04:41:13;;;;;;;0.43;0.43;;;;;;;12.51;90.92;94909.69;4381997;32;20246;-55
2022/09/17 04:43:39;;;;;;;0.20;0.20;;;;;;;12.50;89.12;94922.19;4395437;32;20271;-55
2022/09/17 04:46:05;;;;;;;0.23;0.23;;;;;;;12.48;86.34;94929.72;4386182;32;20210;-56
2022/09/17 04:48:31;;;;;;;0.20;0.20;;;;;;;12.52;88.15;94932.53;4387768;32;20189;-51
2022/09/17 04:50:59;;;;;;;0.10;0.10;;;;;;;12.37;86.95;94931.94;4396383;32;20270;-54
2022/09/17 04:53:24;;;;;;;0.20;0.20;;;;;;;12.54;88.21;94941.00;4372597;32;20242;-55
2022/09/17 04:55:52;;;;;;;0.20;0.20;;;;;;;12.53;89.75;94948.19;4402858;32;20200;-54
2022/09/17 04:58:18;;;;;;;0.30;0.30;;;;;;;12.59;88.78;94965.56;4386243;32;20264;-52
2022/09/17 05:00:44;;;;;;;0.20;0.20;;;;;;;12.68;88.49;94970.87;4397368;32;20223;-52
2022/09/17 05:03:11;;;;;;;0.30;0.30;;;;;;;12.65;89.30;94980.28;4366671;32;20184;-53
2022/09/17 05:05:37;;;;;;;0.20;0.20;;;;;;;12.59;87.92;94983.41;4383536;32;20191;-59
2022/09/17 05:08:02;;;;;;;0.10;0.10;;;;;;;12.65;87.25;94990.94;4387244;32;20263;-55
2022/09/17 05:10:29;;;;;;;0.20;0.20;;;;;;;12.55;85.88;94995.78;4398352;32;20184;-55
2022/09/17 05:12:55;;;;;;;2.10;0.83;;;;;;;12.72;83.52;94998.41;4395268;32;20219;-55
2022/09/17 05:15:24;;;;;;;0.63;0.60;;;;;;;12.49;84.84;94997.00;4363697;32;20192;-54
2022/09/17 05:17:57;;;;;;;1.33;0.30;;;;;;;12.37;84.65;94998.44;4383032;32;20188;-55
2022/09/17 05:20:23;;;;;;;0.40;0.40;;;;;;;12.23;83.76;95010.31;4364319;32;20185;-55
2022/09/17 05:22:54;;;;;;;0.30;0.30;;;;;;;12.24;84.77;95019.84;4362759;32;20195;-53
2022/09/17 05:25:23;;;;;;;0.33;0.33;;;;;;;12.40;88.34;95023.63;4389304;32;20192;-55
2022/09/17 05:27:51;;;;;;;0.30;0.30;;;;;;;12.33;85.33;95024.09;4397455;32;20184;-52
2022/09/17 05:30:16;;;;;;;0.30;0.30;;;;;;;12.47;87.44;95031.16;4351195;32;20252;-52
2022/09/17 05:32:42;;;;;;;0.20;0.20;;;;;;;12.27;86.13;95035.16;4393774;32;20188;-56
2022/09/17 05:35:09;;;;;;;0.30;0.30;;;;;;;12.33;85.90;95037.38;4389670;32;20213;-56
2022/09/17 05:37:35;;;;;;;0.57;0.57;;;;;;;12.44;84.13;95047.75;4413141;32;20200;-51
2022/09/17 05:40:01;;;;;;;0.40;0.40;;;;;;;12.37;85.77;95048.19;4385699;32;20184;-55
2022/09/17 05:42:29;;;;;;;0.20;0.20;;;;;;;12.34;85.13;95049.59;4390042;32;20198;-57
2022/09/17 05:44:55;;;;;;;0.10;0.10;;;;;;;12.25;84.13;95048.81;4384173;32;20253;-56
2022/09/17 05:47:22;;;;;;;0.20;0.20;;;;;;;12.44;88.93;95059.16;4390783;32;20188;-52
2022/09/17 05:49:49;;;;;;;0.20;0.20;;;;;;;12.41;84.69;95061.66;4396017;32;20276;-54
2022/09/17 05:52:15;;;;;;;0.47;0.23;;;;;;;12.34;85.86;95070.09;4391904;32;20207;-55
2022/09/17 05:54:40;;;;;;;0.17;0.17;;;;;;;12.18;86.76;95063.63;4375581;32;20266;-56
2022/09/17 05:57:08;;;;;;;0.27;0.27;;;;;;;12.13;87.70;95069.09;4403750;32;20207;-53
2022/09/17 05:59:34;;;;;;;0.10;0.10;;;;;;;12.36;91.72;95054.59;4379040;32;20211;-56
2022/09/17 06:02:03;;;;;;;0.40;0.40;;;;;;;12.22;89.66;95062.72;4404758;32;20263;-53
2022/09/17 06:04:29;;;;;;;2.00;0.70;;;;;;;12.16;89.50;95063.94;4396603;32;20357;-56
2022/09/17 06:06:56;;;;;;;0.50;0.50;;;;;;;12.27;89.22;95067.09;4389010;32;20193;-54
2022/09/17 06:09:22;;;;;;;0.30;0.30;;;;;;;11.95;85.35;95061.06;4382465;32;20200;-54
2022/09/17 06:11:49;;;;;;;0.10;0.10;;;;;;;12.10;90.25;95061.72;4338984;32;20284;-53
2022/09/17 06:14:15;;;;;;;0.20;0.20;;;;;;;12.11;87.95;95056.09;4394113;32;20250;-56
2022/09/17 06:16:41;;;;;;;0.20;0.20;;;;;;;11.96;87.50;95053.87;4364566;32;20200;-55
2022/09/17 06:19:09;;;;;;;0.50;0.50;;;;;;;12.21;90.46;95053.19;4362575;32;20195;-54
2022/09/17 06:21:36;;;;;;;0.60;0.30;;;;;;;11.84;86.27;95053.69;4392799;32;20215;-54
2022/09/17 06:24:01;;;;;;;0.27;0.27;;;;;;;11.91;88.63;95051.34;4387292;32;20246;-54
2022/09/17 06:26:28;;;;;;;0.47;0.47;;;;;;;12.05;86.48;95057.38;4402044;32;20287;-56
2022/09/17 06:28:54;;;;;;;0.60;0.60;;;;;;;12.14;89.10;95058.16;4392896;32;20188;-56
2022/09/17 06:31:20;;;;;;;0.47;0.47;;;;;;;12.18;86.74;95060.97;4354389;32;20278;-54
2022/09/17 06:33:48;;;;;;;4.17;0.37;;;;;;;12.32;90.76;95062.41;4380241;32;20211;-54
2022/09/17 06:36:13;;;;;;;0.10;0.10;;;;;;;12.14;89.12;95068.78;4376809;32;20241;-54
2022/09/17 06:38:39;;;;;;;0.20;0.20;;;;;;;12.16;87.86;95068.47;4355513;32;20189;-55
2022/09/17 06:41:05;;;;;;;0.67;0.67;;;;;;;12.01;85.69;95056.41;4388429;32;20177;-53
2022/09/17 06:43:33;;;;;;;0.10;0.10;;;;;;;12.23;88.48;95053.66;4404547;32;20200;-55
2022/09/17 06:46:00;;;;;;;0.20;0.20;;;;;;;12.40;89.47;95052.91;4385118;32;20247;-55
2022/09/17 06:48:27;;;;;;;0.70;0.70;;;;;;;12.41;88.00;95057.13;4371245;32;20189;-55
2022/09/17 06:50:54;;;;;;;0.30;0.30;;;;;;;12.36;84.43;95049.28;4384491;32;20189;-55
2022/09/17 06:53:23;;;;;;;0.20;0.20;;;;;;;12.20;84.00;95058.81;4354923;32;20201;-55
2022/09/17 06:55:50;;;;;;;0.13;0.13;;;;;;;12.21;86.34;95055.84;4375488;32;20203;-57
2022/09/17 06:58:16;;;;;;;0.43;0.43;;;;;;;12.12;86.27;95054.22;4387418;32;20299;-52
2022/09/17 07:00:42;;;;;;;3.97;0.73;;;;;;;12.13;86.71;95058.47;4362290;32;20289;-54
2022/09/17 07:03:09;;;;;;;5.93;0.80;;;;;;;12.02;85.65;95052.66;4386888;32;20188;-60
2022/09/17 07:05:35;;;;;;;0.83;0.70;;;;;;;11.84;84.59;95062.44;4366449;32;20185;-56
2022/09/17 07:08:06;;;;;;;1.73;0.47;;;;;;;11.79;84.00;95049.28;4373980;32;20192;-54
2022/09/17 07:10:31;;;;;;;0.30;0.30;;;;;;;11.74;84.21;95054.72;4410163;32;20196;-54
2022/09/17 07:12:58;;;;;;;0.30;0.30;;;;;;;12.14;89.07;95052.06;4389934;32;21435;-55
2022/09/17 07:15:23;;;;;;;0.67;0.67;;;;;;;12.08;85.78;95040.75;4396613;32;20215;-56
2022/09/17 07:17:50;;;;;;;1.83;0.47;;;;;;;11.95;84.96;95041.69;4367339;32;20202;-55
2022/09/17 07:20:16;;;;;;;0.20;0.20;;;;;;;11.95;85.72;95047.78;4390026;32;20184;-55
2022/09/17 07:22:43;;;;;;;0.50;0.50;;;;;;;11.86;84.13;95054.94;4359390;32;20233;-53
2022/09/17 07:25:09;;;;;;;0.47;0.47;;;;;;;11.82;86.14;95054.00;4341271;32;20196;-54
2022/09/17 07:27:35;;;;;;;0.60;0.47;;;;;;;11.92;88.39;95042.28;4378247;32;20196;-55
2022/09/17 07:30:00;;;;;;;0.73;0.57;;;;;;;11.70;83.86;95041.25;4397583;32;20267;-56
2022/09/17 07:32:29;;;;;;;2.73;0.60;;;;;;;11.71;83.42;95040.16;4389508;32;20187;-54
2022/09/17 07:34:57;;;;;;;0.70;0.70;;;;;;;11.77;85.56;95040.06;4372927;32;20185;-56
2022/09/17 07:37:23;;;;;;;1.07;0.20;;;;;;;11.84;85.10;95041.19;4367616;32;20204;-56
2022/09/17 07:39:49;;;;;;;0.43;0.43;;;;;;;11.89;84.76;95035.72;4366285;32;20208;-56
2022/09/17 07:42:14;;;;;;;0.87;0.63;;;;;;;12.08;81.47;95043.44;4383281;32;20195;-54
2022/09/17 07:44:41;;;;;;;1.40;0.67;;;;;;;12.12;82.09;95032.97;4374597;32;20180;-53
2022/09/17 07:47:09;;;;;;;0.73;0.60;;;;;;;12.03;78.91;95046.25;4355114;32;20211;-59
2022/09/17 07:49:34;;;;;;;0.10;0.10;;;;;;;12.08;80.67;95035.44;4386383;32;20242;-58
2022/09/17 07:52:05;;;;;;;0.53;0.53;;;;;;;11.99;80.29;95032.00;4384285;32;20286;-53
2022/09/17 07:54:37;;;;;;;0.83;0.60;;;;;;;12.08;80.66;95032.00;4362663;32;20307;-54
2022/09/17 07:57:07;;;;;;;0.10;0.10;;;;;;;12.04;77.05;95040.63;4379608;32;20192;-54
2022/09/17 07:59:35;;;;;;;0.57;0.40;;;;;;;12.04;79.91;95034.53;4378006;32;20251;-54
2022/09/17 08:02:01;;;;;;;0.60;0.60;;;;;;;11.98;76.49;95041.06;4395259;32;20199;-56
2022/09/17 08:04:26;;;;;;;0.60;0.60;;;;;;;11.92;81.37;95042.28;4365091;32;20256;-55
2022/09/17 08:06:52;;;;;;;7.53;0.67;;;;;;;11.85;78.63;95041.94;4351713;32;20184;-57
2022/09/17 08:09:21;;;;;;;1.47;0.60;;;;;;;11.84;77.00;95051.81;4391671;32;20201;-59
2022/09/17 08:11:48;;;;;;;0.53;0.47;;;;;;;12.00;79.90;95044.19;4386973;32;20286;-51
2022/09/17 08:14:17;;;;;;;0.13;0.13;;;;;;;12.09;75.98;95055.63;4367624;32;20207;-55
2022/09/17 08:16:44;;;;;;;0.50;0.50;;;;;;;11.97;79.06;95055.44;4339724;32;20268;-53
2022/09/17 08:19:09;;;;;;;3.00;0.50;;;;;;;11.71;77.50;95053.44;4368776;32;20247;-53
2022/09/17 08:21:37;;;;;;;1.53;1.23;;;;;;;11.72;78.71;95054.22;4392515;32;20245;-56
2022/09/17 08:24:02;;;;;;;4.53;1.27;;;;;;;11.95;82.16;95057.62;4374355;32;20345;-57
2022/09/17 08:26:29;;;;;;;0.73;0.73;;;;;;;12.13;83.49;95047.81;4412534;32;22384;-54
2022/09/17 08:28:57;;;;;;;3.00;0.63;;;;;;;12.23;84.65;95043.00;4386205;32;20291;-57
2022/09/17 08:31:27;;;;;;;0.17;0.17;;;;;;;12.17;81.02;95060.19;4399518;32;20214;-56
2022/09/17 08:33:53;;;;;;;1.27;0.77;;;;;;;12.15;77.03;95056.28;4393696;32;20230;-55
2022/09/17 08:36:21;;;;;;;0.93;0.70;;;;;;;12.35;76.31;95064.47;4378665;32;20203;-56
2022/09/17 08:38:51;;;;;;;0.70;0.70;;;;;;;12.67;77.59;95073.12;4393452;32;20242;-56
2022/09/17 08:41:49;;;;;;;2.73;1.00;;;;;;;12.62;73.48;95074.06;4392791;32;20202;-55
2022/09/17 08:44:49;;;;;;;3.20;1.40;;;;;;;12.63;73.25;95074.84;4379887;32;20204;-56
2022/09/17 08:47:39;;;;;;;0.30;0.30;;;;;;;12.48;76.48;95088.56;4304764;32;20232;-55
2022/09/17 08:50:31;;;;;;;0.40;0.40;;;;;;;12.45;75.14;95083.88;4374978;32;20185;-56
2022/09/17 08:53:20;;;;;;;1.30;0.67;;;;;;;12.42;76.69;95089.81;4383955;32;20188;-55
2022/09/17 08:56:04;;;;;;;0.37;0.37;;;;;;;12.44;79.22;95090.31;4379636;32;20262;-57
2022/09/17 08:59:12;;;;;;;0.87;0.63;;;;;;;12.46;78.02;95098.75;4403989;32;20271;-56
2022/09/17 09:01:43;;;;;;;0.43;0.43;;;;;;;12.48;77.60;95092.00;4369774;32;20192;-59
2022/09/17 09:04:40;;;;;;;2.67;0.97;;;;;;;12.43;76.05;95104.69;4397574;32;20252;-58
2022/09/17 09:07:16;;;;;;;17.23;1.47;;;;;;;12.40;78.81;95095.47;4383803;32;20227;-58
2022/09/17 09:10:09;;;;;;;3.57;3.23;;;;;;;12.66;80.60;95092.84;4363717;32;20192;-58
2022/09/17 09:12:38;;;;;;;0.97;0.97;;;;;;;12.62;77.39;95105.97;4351003;32;20263;-58
2022/09/17 09:15:35;;;;;;;0.40;0.40;;;;;;;12.63;73.46;95109.44;4397693;32;20268;-58
2022/09/17 09:18:24;;;;;;;1.37;0.73;;;;;;;12.23;73.29;95101.53;4381622;32;20184;-58
2022/09/17 09:20:59;;;;;;;9.73;0.50;;;;;;;12.25;74.51;95104.66;4393197;32;20199;-58
2022/09/17 09:23:40;;;;;;;0.40;0.40;;;;;;;12.16;71.80;95101.19;4385985;32;20227;-58
2022/09/17 09:26:38;;;;;;;0.50;0.50;;;;;;;12.04;72.04;95116.94;4381407;32;20191;-58
2022/09/17 09:29:39;;;;;;;0.40;0.40;;;;;;;11.96;71.72;95101.72;4406814;32;20184;-58
2022/09/17 09:32:48;;;;;;;2.57;0.80;;;;;;;12.00;72.80;95097.38;4329681;32;20269;-58
2022/09/17 09:35:38;;;;;;;4.13;0.83;;;;;;;12.01;73.31;95102.38;4395393;32;20234;-58
2022/09/17 09:38:13;;;;;;;0.73;0.67;;;;;;;12.02;74.24;95106.63;4372564;32;20192;-58
2022/09/17 09:41:04;;;;;;;0.47;0.40;;;;;;;12.13;72.46;95108.97;4403328;32;20186;-60
2022/09/17 09:43:45;;;;;;;0.63;0.63;;;;;;;11.74;75.48;95115.03;4386878;32;20215;-58
2022/09/17 09:46:22;;;;;;;0.20;0.20;;;;;;;11.86;76.82;95116.06;4395488;32;20208;-58
2022/09/17 09:49:13;;;;;;;3.93;0.97;;;;;;;11.89;78.00;95120.78;4391913;32;20191;-58
2022/09/17 09:52:01;;;;;;;2.07;0.73;;;;;;;11.84;76.51;95120.94;4391680;32;20243;-58
2022/09/17 09:55:04;;;;;;;3.50;1.43;;;;;;;11.71;76.87;95121.75;4383426;32;20215;-58
2022/09/17 09:57:47;;;;;;;0.57;0.40;;;;;;;11.90;76.38;95117.03;4384830;32;20172;-58
2022/09/17 10:00:29;;;;;;;0.43;0.43;;;;;;;11.90;75.76;95109.06;4388265;32;20192;-59
2022/09/17 10:03:07;;;;;;;1.10;1.03;;;;;;;11.91;75.57;95120.47;4366481;32;20227;-58
2022/09/17 10:05:33;;;;;;;0.40;0.40;;;;;;;11.77;77.75;95117.13;4397671;32;20241;-59
2022/09/17 10:07:59;;;;;;;1.57;0.70;;;;;;;11.57;79.46;95116.53;4385808;32;20334;-58
2022/09/17 10:10:26;;;;;;;3.30;1.23;;;;;;;11.49;81.37;95113.81;4382643;32;20246;-58
2022/09/17 10:13:13;;;;;;;2.17;1.30;;;;;;;11.32;83.44;95122.47;4383716;32;20204;-59
2022/09/17 10:15:41;;;;;;;0.43;0.43;;;;;;;11.16;82.97;95137.19;4375211;32;20192;-58
2022/09/17 10:18:12;;;;;;;1.93;1.33;;;;;;;11.22;83.79;95131.44;4381864;32;20242;-58
2022/09/17 10:20:55;;;;;;;0.00;0.00;;;;;;;11.36;84.01;95131.41;4404578;32;20236;-61
2022/09/17 10:23:28;;;;;;;0.47;0.47;;;;;;;11.22;83.75;95136.00;4387709;32;20196;-58
2022/09/17 10:25:55;;;;;;;2.13;0.80;;;;;;;11.06;83.78;95142.72;4393529;32;20180;-57
2022/09/17 10:28:45;;;;;;;0.90;0.90;;;;;;;10.64;88.32;95156.09;4373743;32;20224;-59
2022/09/17 10:31:10;;;;;;;0.30;0.30;;;;;;;10.62;90.13;95144.19;4385764;32;20206;-58
2022/09/17 10:34:04;;;;;;;7.83;0.63;;;;;;;10.65;91.51;95149.69;4338112;32;20212;-57
2022/09/17 10:36:43;;;;;;;2.40;1.30;;;;;;;10.40;94.53;95152.84;4360683;32;20211;-58
2022/09/17 10:39:27;;;;;;;0.50;0.50;;;;;;;10.37;93.82;95150.03;4388679;32;20180;-57
2022/09/17 10:42:03;;;;;;;0.20;0.20;;;;;;;10.52;92.76;95141.78;4387218;32;20215;-57
2022/09/17 10:44:33;;;;;;;8.03;0.60;;;;;;;10.55;93.40;95141.19;4394649;32;20253;-58
2022/09/17 10:47:23;;;;;;;0.30;0.30;;;;;;;10.68;93.14;95137.72;4375067;32;20292;-58
2022/09/17 10:50:07;;;;;;;0.67;0.57;;;;;;;10.74;93.88;95131.22;4389370;32;20188;-58
2022/09/17 10:52:38;;;;;;;0.47;0.47;;;;;;;10.80;94.31;95127.38;4414668;32;20218;-57
2022/09/17 10:55:25;;;;;;;0.30;0.30;;;;;;;10.61;92.38;95130.16;4400385;32;20262;-58
2022/09/17 10:57:57;;;;;;;0.60;0.60;;;;;;;10.64;92.27;95123.47;4409897;32;20232;-58
2022/09/17 11:00:23;;;;;;;2.30;0.73;;;;;;;10.71;92.98;95123.84;4397053;32;20191;-56
2022/09/17 11:03:26;;;;;;;0.20;0.20;;;;;;;10.62;92.75;95120.31;4375925;32;20270;-58
2022/09/17 11:06:06;;;;;;;0.20;0.20;;;;;;;10.69;93.15;95123.34;4386726;32;20219;-56
2022/09/17 11:08:57;;;;;;;0.40;0.40;;;;;;;10.82;93.59;95121.75;4376931;32;20179;-56
2022/09/17 11:11:49;;;;;;;0.30;0.30;;;;;;;10.86;93.25;95131.47;4355222;32;20204;-55
2022/09/17 11:15:12;;;;;;;0.40;0.40;;;;;;;10.98;92.56;95131.75;4401146;32;20237;-57
2022/09/17 11:18:02;;;;;;;0.30;0.30;;;;;;;10.89;92.94;95132.75;4308498;33;20185;-55
2022/09/17 11:20:36;;;;;;;0.20;0.20;;;;;;;11.19;91.48;95126.75;4323700;33;20244;-57
2022/09/17 11:23:12;;;;;;;0.30;0.30;;;;;;;11.28;90.87;95124.94;4306314;33;20281;-54
2022/09/17 11:26:00;;;;;;;0.20;0.20;;;;;;;10.92;92.00;95119.66;4281192;33;20186;-53
2022/09/17 11:28:49;;;;;;;2.13;0.57;;;;;;;10.91;91.42;95112.78;4318489;32;20192;-55
2022/09/17 11:32:00;;;;;;;0.00;0.00;;;;;;;10.70;91.52;95127.59;4381960;32;20192;-58
2022/09/17 11:34:28;;;;;;;0.20;0.20;;;;;;;10.63;92.29;95121.88;4399675;32;20375;-56
2022/09/17 11:37:22;;;;;;;0.60;0.53;;;;;;;10.90;93.11;95121.84;4358568;32;20184;-57
2022/09/17 11:40:11;;;;;;;0.10;0.10;;;;;;;10.92;92.25;95121.53;4357107;32;20195;-57
2022/09/17 11:42:46;;;;;;;0.20;0.20;;;;;;;10.96;92.76;95127.81;4398170;32;20188;-55
2022/09/17 11:45:19;;;;;;;0.20;0.20;;;;;;;11.02;92.77;95122.06;4373618;32;20203;-57
2022/09/17 11:47:54;;;;;;;0.00;0.00;;;;;;;10.95;93.31;95127.03;4356823;32;20192;-56
2022/09/17 11:50:25;;;;;;;0.30;0.30;;;;;;;10.91;93.90;95128.72;4370565;32;20179;-55
2022/09/17 11:53:02;;;;;;;3.97;1.30;;;;;;;10.90;93.57;95132.44;4379909;32;20253;-57
2022/09/17 11:55:34;;;;;;;0.47;0.43;;;;;;;10.94;93.03;95114.06;4358658;32;20184;-55
2022/09/17 11:58:13;;;;;;;0.30;0.30;;;;;;;11.08;93.55;95114.78;4393570;32;20206;-57
2022/09/17 12:00:50;;;;;;;0.20;0.20;;;;;;;11.11;93.75;95108.88;4389028;32;20183;-58
2022/09/17 12:03:27;;;;;;;0.20;0.20;;;;;;;11.07;90.93;95099.16;4405612;32;20283;-55
2022/09/17 12:06:10;;;;;;;0.40;0.40;;;;;;;11.13;92.02;95095.31;4357600;32;20192;-56
2022/09/17 12:08:59;;;;;;;0.67;0.67;;;;;;;11.12;92.16;95096.38;4392200;32;20183;-58